Time;durP1;ratioP1;P1;durP2;ratioP2;P2;SDS_P1;SDS_P2;PMS_P1;PMS_P2;Temp;Humidity;BMP_temperature;BMP_pressure;BME280_temperature;BME280_humidity;BME280_pressure;Samples;Min_cycle;Max_cycle;Signal;HPM_P1;HPM_P2
2021/12/20 00:00:52;;;;;;;1.15;0.70;;;;;;;;;;5059358;28;20140;-62
2021/12/20 00:03:19;;;;;;;1.77;0.85;;;;;;;;;;5058918;28;20049;-62
2021/12/20 00:05:46;;;;;;;0.32;0.32;;;;;;;;;;5058272;28;20045;-62
2021/12/20 00:08:13;;;;;;;2.33;0.65;;;;;;;;;;5062266;28;20072;-62
2021/12/20 00:10:39;;;;;;;1.37;0.70;;;;;;;;;;5064912;28;20124;-62
2021/12/20 00:13:05;;;;;;;2.58;1.00;;;;;;;;;;5057153;28;20464;-62
2021/12/20 00:15:32;;;;;;;0.60;0.60;;;;;;;;;;5062652;28;20049;-62
2021/12/20 00:18:02;;;;;;;1.85;0.75;;;;;;;;;;5055728;28;20052;-62
2021/12/20 00:20:29;;;;;;;0.70;0.70;;;;;;;;;;5061578;28;20044;-62
2021/12/20 00:23:04;;;;;;;1.60;0.60;;;;;;;;;;5060054;28;20057;-62
2021/12/20 00:25:31;;;;;;;2.22;0.98;;;;;;;;;;5062349;28;20083;-63
2021/12/20 00:27:58;;;;;;;0.88;0.73;;;;;;;;;;5059738;28;20091;-62
2021/12/20 00:30:32;;;;;;;2.28;1.00;;;;;;;;;;5057558;28;20060;-63
2021/12/20 00:32:59;;;;;;;1.55;0.73;;;;;;;;;;5053596;28;20091;-62
2021/12/20 00:35:25;;;;;;;1.52;0.82;;;;;;;;;;5064419;28;20094;-63
2021/12/20 00:40:44;;;;;;;1.98;0.70;;;;;;;;;;5066104;28;20083;-63
2021/12/20 00:43:11;;;;;;;0.63;0.60;;;;;;;;;;5079929;28;20083;-63
2021/12/20 00:45:37;;;;;;;4.35;1.10;;;;;;;;;;5078423;28;20487;-62
2021/12/20 00:48:04;;;;;;;0.63;0.57;;;;;;;;;;5080198;28;20174;-62
2021/12/20 00:50:36;;;;;;;2.17;0.90;;;;;;;;;;5079140;28;20036;-62
2021/12/20 00:53:02;;;;;;;1.60;0.70;;;;;;;;;;5082291;28;20131;-62
2021/12/20 00:55:29;;;;;;;1.02;0.65;;;;;;;;;;5075699;28;20080;-63
2021/12/20 00:58:02;;;;;;;1.98;0.70;;;;;;;;;;5080850;28;20132;-62
2021/12/20 01:00:30;;;;;;;2.97;0.82;;;;;;;;;;5078544;28;20128;-63
2021/12/20 01:02:58;;;;;;;1.40;1.02;;;;;;;;;;5080538;28;20665;-62
2021/12/20 01:05:31;;;;;;;1.20;0.60;;;;;;;;;;5085662;28;20066;-62
2021/12/20 01:08:00;;;;;;;2.85;0.80;;;;;;;;;;5083568;28;20503;-62
2021/12/20 01:10:29;;;;;;;1.63;0.80;;;;;;;;;;5082740;28;20166;-62
2021/12/20 01:12:59;;;;;;;2.00;0.95;;;;;;;;;;5076160;28;20049;-63
2021/12/20 01:15:28;;;;;;;4.20;0.95;;;;;;;;;;5078803;28;20123;-62
2021/12/20 01:17:54;;;;;;;0.50;0.50;;;;;;;;;;5080457;28;20143;-62
2021/12/20 01:20:24;;;;;;;0.85;0.60;;;;;;;;;;5079422;28;20571;-62
2021/12/20 01:22:51;;;;;;;1.35;0.80;;;;;;;;;;5075491;28;20128;-62
2021/12/20 01:25:18;;;;;;;2.80;0.65;;;;;;;;;;5072776;28;20048;-62
2021/12/20 01:27:52;;;;;;;2.15;1.00;;;;;;;;;;5077165;28;20148;-62
2021/12/20 01:30:20;;;;;;;3.50;0.85;;;;;;;;;;5078602;28;20079;-62
2021/12/20 01:32:47;;;;;;;1.95;0.90;;;;;;;;;;5076264;28;20161;-62
2021/12/20 01:35:21;;;;;;;1.88;0.80;;;;;;;;;;5078133;28;20109;-62
2021/12/20 01:37:47;;;;;;;1.35;0.85;;;;;;;;;;5081351;28;20155;-62
2021/12/20 01:40:14;;;;;;;2.33;0.75;;;;;;;;;;5077523;28;20048;-62
2021/12/20 01:42:42;;;;;;;1.38;0.70;;;;;;;;;;5077085;28;20095;-62
2021/12/20 01:45:13;;;;;;;5.65;0.80;;;;;;;;;;5076235;28;20128;-62
2021/12/20 01:47:43;;;;;;;3.30;1.60;;;;;;;;;;5079475;28;20571;-63
2021/12/20 01:53:00;;;;;;;1.48;0.80;;;;;;;;;;5037689;28;20082;-62
2021/12/20 01:55:27;;;;;;;2.53;0.80;;;;;;;;;;5079119;28;20143;-62
2021/12/20 01:57:53;;;;;;;2.60;0.95;;;;;;;;;;5081581;28;20861;-62
2021/12/20 02:00:21;;;;;;;2.72;0.68;;;;;;;;;;5077150;28;20131;-62
2021/12/20 02:02:53;;;;;;;3.67;0.93;;;;;;;;;;5080965;28;20079;-62
2021/12/20 02:05:25;;;;;;;2.30;0.80;;;;;;;;;;5085552;28;20098;-62
2021/12/20 02:07:59;;;;;;;2.15;0.98;;;;;;;;;;5079738;28;20087;-62
2021/12/20 02:10:26;;;;;;;2.70;1.20;;;;;;;;;;5079514;28;20090;-62
2021/12/20 02:12:53;;;;;;;3.10;0.80;;;;;;;;;;5082354;28;20080;-63
2021/12/20 02:15:19;;;;;;;1.13;0.90;;;;;;;;;;5081671;28;20511;-62
2021/12/20 02:17:46;;;;;;;2.60;1.15;;;;;;;;;;5080840;28;20565;-62
2021/12/20 02:20:23;;;;;;;2.83;0.82;;;;;;;;;;5081456;28;20101;-62
2021/12/20 02:22:52;;;;;;;4.70;1.10;;;;;;;;;;5083259;28;20533;-62
2021/12/20 02:25:27;;;;;;;1.90;0.70;;;;;;;;;;5077439;28;20143;-62
2021/12/20 02:27:53;;;;;;;;;;;;;;;;;;5080242;28;20127;-62
2021/12/20 02:38:41;;;;;;;2.45;0.95;;;;;;;;;;5054565;28;20078;-62
2021/12/20 02:41:13;;;;;;;2.20;0.95;;;;;;;;;;5083247;28;20105;-62
2021/12/20 02:43:42;;;;;;;4.78;1.27;;;;;;;;;;5080416;28;20082;-62
2021/12/20 02:46:45;;;;;;;4.43;1.00;;;;;;;;;;5081610;28;20147;-62
2021/12/20 02:49:22;;;;;;;2.63;0.90;;;;;;;;;;5084093;28;20143;-62
2021/12/20 02:51:52;;;;;;;2.90;0.90;;;;;;;;;;5080231;28;20139;-62
2021/12/20 02:54:21;;;;;;;3.50;1.00;;;;;;;;;;5081105;28;20139;-62
2021/12/20 02:56:48;;;;;;;3.83;0.80;;;;;;;;;;5082300;28;20052;-62
2021/12/20 02:59:21;;;;;;;2.85;1.08;;;;;;;;;;5081302;28;20545;-62
2021/12/20 03:01:51;;;;;;;2.70;0.80;;;;;;;;;;5082287;28;20071;-62
2021/12/20 03:04:17;;;;;;;4.40;0.82;;;;;;;;;;5079873;28;20044;-62
2021/12/20 03:06:56;;;;;;;5.15;1.10;;;;;;;;;;5081029;28;20113;-62
2021/12/20 03:09:27;;;;;;;3.78;0.93;;;;;;;;;;5084304;28;20084;-62
2021/12/20 03:11:59;;;;;;;4.90;1.10;;;;;;;;;;5079831;28;20534;-61
2021/12/20 03:14:36;;;;;;;4.45;1.17;;;;;;;;;;5084588;28;20083;-62
2021/12/20 03:17:04;;;;;;;6.68;2.22;;;;;;;;;;5083876;28;20072;-63
2021/12/20 03:19:31;;;;;;;1.95;0.82;;;;;;;;;;5082760;28;20080;-62
2021/12/20 03:21:57;;;;;;;2.90;0.90;;;;;;;;;;5081334;28;20143;-62
2021/12/20 03:24:31;;;;;;;8.50;1.20;;;;;;;;;;5081035;28;20083;-62
2021/12/20 03:26:58;;;;;;;2.47;1.10;;;;;;;;;;5080128;28;20134;-62
2021/12/20 03:29:24;;;;;;;4.43;1.20;;;;;;;;;;5080294;28;20135;-62
2021/12/20 03:31:51;;;;;;;4.95;1.17;;;;;;;;;;5080688;28;20072;-62
2021/12/20 03:34:18;;;;;;;3.78;1.17;;;;;;;;;;5082587;28;20131;-62
2021/12/20 03:36:45;;;;;;;5.70;1.30;;;;;;;;;;5079772;28;20139;-62
2021/12/20 03:39:11;;;;;;;4.80;1.08;;;;;;;;;;5082702;28;20087;-62
2021/12/20 03:41:38;;;;;;;2.13;1.00;;;;;;;;;;5079554;28;20131;-62
2021/12/20 03:44:05;;;;;;;4.65;1.40;;;;;;;;;;5079136;28;20080;-62
2021/12/20 03:46:32;;;;;;;5.35;1.17;;;;;;;;;;5079086;28;20128;-62
2021/12/20 03:48:59;;;;;;;2.63;1.50;;;;;;;;;;5080450;28;20135;-62
2021/12/20 03:51:26;;;;;;;;;;;;;;;;;;5078791;28;20495;-62
2021/12/20 03:53:59;;;;;;;8.68;1.95;;;;;;;;;;5081125;28;19970;-62
2021/12/20 03:56:25;;;;;;;2.15;1.10;;;;;;;;;;5084127;28;20299;-62
2021/12/20 03:58:52;;;;;;;5.85;1.50;;;;;;;;;;5078809;28;20139;-62
2021/12/20 04:01:18;;;;;;;3.50;1.20;;;;;;;;;;5073512;28;20155;-62
2021/12/20 04:03:45;;;;;;;5.38;1.30;;;;;;;;;;5081429;28;20861;-62
2021/12/20 04:06:12;;;;;;;6.68;1.52;;;;;;;;;;5068198;28;20051;-62
2021/12/20 04:08:40;;;;;;;5.72;1.52;;;;;;;;;;5080194;28;20143;-63
2021/12/20 04:11:06;;;;;;;6.22;0.95;;;;;;;;;;5077181;28;20048;-62
2021/12/20 04:13:33;;;;;;;7.00;1.77;;;;;;;;;;5078440;28;20130;-62
2021/12/20 04:16:01;;;;;;;7.00;1.58;;;;;;;;;;5079812;28;20147;-62
2021/12/20 04:18:28;;;;;;;6.32;1.33;;;;;;;;;;5079956;28;20139;-63
2021/12/20 04:20:59;;;;;;;4.10;1.45;;;;;;;;;;5083135;28;20068;-63
2021/12/20 04:23:26;;;;;;;11.27;1.50;;;;;;;;;;5082245;28;20858;-62
2021/12/20 04:25:52;;;;;;;4.22;1.30;;;;;;;;;;5079554;28;20136;-62
2021/12/20 04:28:19;;;;;;;8.38;1.40;;;;;;;;;;5084113;28;20164;-62
2021/12/20 04:30:52;;;;;;;3.50;1.10;;;;;;;;;;5079010;28;20143;-62
2021/12/20 04:33:18;;;;;;;3.83;1.08;;;;;;;;;;5081014;28;20076;-62
2021/12/20 04:35:45;;;;;;;3.85;1.50;;;;;;;;;;5077961;28;20105;-62
2021/12/20 04:38:12;;;;;;;3.53;1.48;;;;;;;;;;5081090;28;20049;-62
2021/12/20 04:40:39;;;;;;;9.00;1.52;;;;;;;;;;5072632;28;20084;-62
2021/12/20 04:43:05;;;;;;;2.63;0.90;;;;;;;;;;5082293;28;20083;-63
2021/12/20 04:45:33;;;;;;;2.75;1.15;;;;;;;;;;5078616;28;20583;-62
2021/12/20 04:48:00;;;;;;;5.43;1.20;;;;;;;;;;5082682;28;20169;-63
2021/12/20 04:50:28;;;;;;;4.25;1.30;;;;;;;;;;5077381;28;20048;-62
2021/12/20 04:53:01;;;;;;;5.95;1.40;;;;;;;;;;5077872;28;20090;-62
2021/12/20 04:55:28;;;;;;;11.75;2.00;;;;;;;;;;5078265;28;20132;-62
2021/12/20 04:57:55;;;;;;;6.35;1.40;;;;;;;;;;5080520;28;20142;-62
2021/12/20 05:00:25;;;;;;;4.95;1.48;;;;;;;;;;5061486;28;20052;-62
2021/12/20 05:02:51;;;;;;;7.43;1.52;;;;;;;;;;5074481;28;20079;-62
2021/12/20 05:05:19;;;;;;;6.20;1.52;;;;;;;;;;5079860;28;20055;-62
2021/12/20 05:07:54;;;;;;;4.63;1.27;;;;;;;;;;5081564;28;20139;-62
2021/12/20 05:10:33;;;;;;;6.35;1.45;;;;;;;;;;5074884;28;20070;-62
2021/12/20 05:13:02;;;;;;;5.88;1.42;;;;;;;;;;5076441;28;20140;-62
2021/12/20 05:15:28;;;;;;;8.63;1.67;;;;;;;;;;5081427;28;20144;-62
2021/12/20 05:17:55;;;;;;;8.82;1.60;;;;;;;;;;5075756;28;20080;-62
2021/12/20 05:20:23;;;;;;;6.07;1.35;;;;;;;;;;5066254;28;20055;-63
2021/12/20 05:22:49;;;;;;;4.50;1.20;;;;;;;;;;5079987;28;20075;-62
2021/12/20 05:25:16;;;;;;;5.33;1.30;;;;;;;;;;5078916;28;20068;-62
2021/12/20 05:27:42;;;;;;;12.23;1.50;;;;;;;;;;5080358;28;20056;-62
2021/12/20 05:30:10;;;;;;;5.85;1.13;;;;;;;;;;5077573;28;20135;-62
2021/12/20 05:32:36;;;;;;;4.43;1.30;;;;;;;;;;5075609;28;20131;-62
2021/12/20 05:35:06;;;;;;;5.10;1.25;;;;;;;;;;5073112;28;20485;-62
2021/12/20 05:37:32;;;;;;;6.22;1.30;;;;;;;;;;5079737;28;20083;-62
2021/12/20 05:40:03;;;;;;;4.97;1.40;;;;;;;;;;5084294;28;20082;-62
2021/12/20 05:42:30;;;;;;;6.05;1.55;;;;;;;;;;5080126;28;20551;-62
2021/12/20 05:44:56;;;;;;;6.03;1.10;;;;;;;;;;5081172;28;20130;-62
2021/12/20 05:47:23;;;;;;;6.32;1.20;;;;;;;;;;5074571;28;20058;-62
2021/12/20 05:49:50;;;;;;;8.30;1.52;;;;;;;;;;5074511;28;20040;-62
2021/12/20 05:52:17;;;;;;;4.28;1.55;;;;;;;;;;5080548;28;20505;-62
2021/12/20 05:54:44;;;;;;;6.57;1.30;;;;;;;;;;5079888;28;20123;-63
2021/12/20 05:57:17;;;;;;;7.63;1.70;;;;;;;;;;5079619;28;20054;-62
2021/12/20 05:59:43;;;;;;;9.02;1.45;;;;;;;;;;5084556;28;20087;-62
2021/12/20 06:02:10;;;;;;;4.53;1.88;;;;;;;;;;5081751;28;20154;-62
2021/12/20 06:04:37;;;;;;;4.77;0.83;;;;;;;;;;5078996;28;20463;-63
2021/12/20 06:07:03;;;;;;;10.02;1.30;;;;;;;;;;5082972;28;20143;-62
2021/12/20 06:09:30;;;;;;;5.95;1.40;;;;;;;;;;5080687;28;20555;-62
2021/12/20 06:12:00;;;;;;;8.52;1.65;;;;;;;;;;5079558;28;20054;-62
2021/12/20 06:14:27;;;;;;;10.00;1.65;;;;;;;;;;5080573;28;20083;-62
2021/12/20 06:16:55;;;;;;;9.20;2.03;;;;;;;;;;5080362;28;20529;-62
2021/12/20 06:19:24;;;;;;;8.43;1.38;;;;;;;;;;5085248;28;20048;-62
2021/12/20 06:21:51;;;;;;;9.45;1.73;;;;;;;;;;5081578;28;20123;-62
2021/12/20 06:24:17;;;;;;;12.20;2.08;;;;;;;;;;5083451;28;20132;-62
2021/12/20 06:26:51;;;;;;;7.75;1.42;;;;;;;;;;5081927;28;20131;-62
2021/12/20 06:29:18;;;;;;;6.32;1.60;;;;;;;;;;5082607;28;20135;-62
2021/12/20 06:31:45;;;;;;;8.60;1.48;;;;;;;;;;5079027;28;20474;-62
2021/12/20 06:34:11;;;;;;;9.15;1.88;;;;;;;;;;5082286;28;20084;-62
2021/12/20 06:36:38;;;;;;;9.48;1.73;;;;;;;;;;5073104;28;20132;-62
2021/12/20 06:39:05;;;;;;;8.85;2.08;;;;;;;;;;5077777;28;20048;-62
2021/12/20 06:41:38;;;;;;;8.18;1.60;;;;;;;;;;4776999;28;8319495;-62
2021/12/20 06:44:05;;;;;;;6.00;1.63;;;;;;;;;;5056030;28;20500;-62
2021/12/20 06:46:33;;;;;;;7.15;1.73;;;;;;;;;;5059869;28;20049;-62
2021/12/20 06:49:00;;;;;;;6.55;1.50;;;;;;;;;;5062596;28;20167;-62
2021/12/20 06:51:27;;;;;;;4.75;1.23;;;;;;;;;;5061902;28;20041;-62
2021/12/20 06:53:55;;;;;;;7.23;1.50;;;;;;;;;;5054877;28;20136;-62
2021/12/20 06:56:22;;;;;;;8.25;1.90;;;;;;;;;;5055825;28;20757;-62
2021/12/20 06:58:55;;;;;;;15.55;1.77;;;;;;;;;;5057629;28;20052;-62
2021/12/20 07:01:21;;;;;;;9.27;2.40;;;;;;;;;;5062017;28;20143;-63
2021/12/20 07:03:48;;;;;;;12.33;2.10;;;;;;;;;;5061902;28;20135;-62
2021/12/20 07:06:18;;;;;;;10.45;1.65;;;;;;;;;;5060965;28;20298;-62
2021/12/20 07:08:44;;;;;;;4.87;1.20;;;;;;;;;;5063735;28;20076;-62
2021/12/20 07:11:11;;;;;;;7.18;1.70;;;;;;;;;;5053904;28;20100;-62
2021/12/20 07:13:38;;;;;;;7.82;1.67;;;;;;;;;;5060010;28;20453;-62
2021/12/20 07:16:05;;;;;;;;;;;;;;;;;;5061286;28;20117;-62
2021/12/20 07:18:31;;;;;;;7.28;1.63;;;;;;;;;;5060088;28;19927;-62
2021/12/20 07:21:05;;;;;;;9.35;1.83;;;;;;;;;;5058151;28;20062;-62
2021/12/20 07:23:31;;;;;;;7.25;1.50;;;;;;;;;;5056396;28;20515;-62
2021/12/20 07:25:58;;;;;;;9.55;1.50;;;;;;;;;;5055248;28;20123;-62
2021/12/20 07:28:24;;;;;;;6.63;1.27;;;;;;;;;;5053658;28;20128;-62
2021/12/20 07:30:51;;;;;;;8.40;2.37;;;;;;;;;;5059328;28;20041;-64
2021/12/20 07:33:18;;;;;;;7.72;1.80;;;;;;;;;;5060382;28;20496;-62
2021/12/20 07:35:45;;;;;;;15.57;2.47;;;;;;;;;;5061218;28;20041;-62
2021/12/20 07:38:14;;;;;;;9.05;1.63;;;;;;;;;;5061701;28;20136;-62
2021/12/20 07:40:45;;;;;;;3.28;1.27;;;;;;;;;;5059618;28;20068;-62
2021/12/20 07:43:14;;;;;;;4.90;2.10;;;;;;;;;;5057822;28;20498;-62
2021/12/20 07:45:41;;;;;;;6.35;2.05;;;;;;;;;;5053256;28;20077;-62
2021/12/20 07:48:08;;;;;;;9.43;1.77;;;;;;;;;;5058637;28;20114;-62
2021/12/20 07:50:35;;;;;;;10.07;1.70;;;;;;;;;;5060268;28;20048;-62
2021/12/20 07:53:01;;;;;;;11.95;1.55;;;;;;;;;;5065261;28;20128;-62
2021/12/20 07:55:28;;;;;;;14.13;2.45;;;;;;;;;;5058467;28;20481;-63
2021/12/20 07:57:55;;;;;;;6.70;1.97;;;;;;;;;;5062446;28;20140;-62
2021/12/20 08:00:21;;;;;;;8.60;1.88;;;;;;;;;;5062382;28;20376;-62
2021/12/20 08:02:48;;;;;;;5.20;1.23;;;;;;;;;;5053881;28;20140;-62
2021/12/20 08:05:21;;;;;;;9.50;1.90;;;;;;;;;;5050461;28;20048;-62
2021/12/20 08:07:50;;;;;;;10.50;1.85;;;;;;;;;;5057867;28;20128;-62
2021/12/20 08:10:21;;;;;;;5.05;1.60;;;;;;;;;;5058677;28;20074;-62
2021/12/20 08:12:54;;;;;;;15.50;2.38;;;;;;;;;;5062984;28;20094;-62
2021/12/20 08:15:21;;;;;;;5.80;1.70;;;;;;;;;;5063277;28;20124;-62
2021/12/20 08:17:49;;;;;;;12.05;1.83;;;;;;;;;;5053277;28;20095;-62
2021/12/20 08:20:16;;;;;;;7.00;1.75;;;;;;;;;;5059528;28;20057;-62
2021/12/20 08:22:45;;;;;;;11.32;2.47;;;;;;;;;;5058897;28;20072;-63
2021/12/20 08:25:12;;;;;;;3.92;1.58;;;;;;;;;;5060424;28;20128;-63
2021/12/20 08:27:41;;;;;;;7.78;2.10;;;;;;;;;;5058520;28;20131;-62
2021/12/20 08:30:08;;;;;;;7.85;2.17;;;;;;;;;;5058289;28;20124;-62
2021/12/20 08:32:36;;;;;;;8.38;2.28;;;;;;;;;;5057644;28;20053;-63
2021/12/20 08:35:04;;;;;;;9.45;2.65;;;;;;;;;;5064086;28;20049;-63
2021/12/20 08:37:31;;;;;;;7.45;2.55;;;;;;;;;;5059174;28;20076;-63
2021/12/20 08:39:57;;;;;;;7.07;2.23;;;;;;;;;;5058239;28;20092;-62
2021/12/20 08:42:30;;;;;;;10.48;2.80;;;;;;;;;;5077439;28;20048;-63
2021/12/20 08:44:57;;;;;;;12.60;2.70;;;;;;;;;;5083314;28;20101;-62
2021/12/20 08:47:23;;;;;;;14.13;2.45;;;;;;;;;;5082332;28;20646;-63
2021/12/20 08:49:50;;;;;;;6.88;2.13;;;;;;;;;;5082483;28;20437;-63
2021/12/20 08:52:16;;;;;;;6.72;1.92;;;;;;;;;;5078737;28;20467;-63
2021/12/20 08:54:43;;;;;;;7.82;2.22;;;;;;;;;;5080419;28;20090;-63
2021/12/20 08:57:10;;;;;;;8.10;2.40;;;;;;;;;;5075370;28;20127;-63
2021/12/20 08:59:36;;;;;;;11.40;2.55;;;;;;;;;;5076798;28;20080;-63
2021/12/20 09:02:06;;;;;;;12.55;2.83;;;;;;;;;;5079773;28;20128;-63
2021/12/20 09:04:44;;;;;;;12.18;2.65;;;;;;;;;;5080198;28;20090;-63
2021/12/20 09:07:15;;;;;;;12.50;3.00;;;;;;;;;;5075602;28;20815;-62
2021/12/20 09:09:46;;;;;;;15.45;3.45;;;;;;;;;;5078831;28;20088;-63
2021/12/20 09:12:14;;;;;;;11.13;2.90;;;;;;;;;;5077566;28;20131;-63
2021/12/20 09:14:41;;;;;;;14.82;2.85;;;;;;;;;;5080175;28;20128;-63
2021/12/20 09:17:08;;;;;;;6.80;2.05;;;;;;;;;;5079239;28;20473;-62
2021/12/20 09:19:36;;;;;;;9.82;2.30;;;;;;;;;;5074633;28;20116;-63
2021/12/20 09:22:02;;;;;;;;;;;;;;;;;;5082147;28;20121;-63
2021/12/20 09:24:29;;;;;;;11.38;2.85;;;;;;;;;;5075908;28;20020;-63
2021/12/20 09:26:55;;;;;;;6.72;2.17;;;;;;;;;;5076688;28;20417;-63
2021/12/20 09:29:22;;;;;;;6.97;2.30;;;;;;;;;;5080865;28;20739;-63
2021/12/20 09:31:50;;;;;;;16.70;3.40;;;;;;;;;;5079464;28;20716;-63
2021/12/20 09:34:16;;;;;;;6.67;1.77;;;;;;;;;;5074467;28;20127;-63
2021/12/20 09:36:43;;;;;;;6.63;1.98;;;;;;;;;;5080900;28;20062;-63
2021/12/20 09:39:10;;;;;;;9.63;2.20;;;;;;;;;;5076717;28;20136;-63
2021/12/20 09:44:07;;;;;;;9.80;2.67;;;;;;;;;;5080296;28;20084;-63
2021/12/20 09:46:34;;;;;;;;;;;;;;;;;;5079536;28;20108;-63
2021/12/20 09:49:00;;;;;;;8.10;2.13;;;;;;;;;;5080146;28;19920;-62
2021/12/20 09:51:27;;;;;;;10.23;2.97;;;;;;;;;;5075120;28;20171;-62
2021/12/20 09:54:00;;;;;;;12.95;3.15;;;;;;;;;;5072991;28;20079;-63
2021/12/20 09:56:31;;;;;;;6.40;2.30;;;;;;;;;;5075747;28;20055;-63
2021/12/20 09:58:58;;;;;;;15.10;3.35;;;;;;;;;;5080579;28;20086;-63
2021/12/20 10:01:31;;;;;;;11.82;2.60;;;;;;;;;;5076413;28;20087;-63
2021/12/20 10:03:58;;;;;;;11.23;2.93;;;;;;;;;;5076636;28;20135;-63
2021/12/20 10:06:25;;;;;;;23.25;3.00;;;;;;;;;;5079516;28;20514;-63
2021/12/20 10:08:55;;;;;;;14.82;2.58;;;;;;;;;;5077589;28;20131;-63
2021/12/20 10:11:24;;;;;;;9.38;2.08;;;;;;;;;;5073491;28;20135;-63
2021/12/20 10:14:02;;;;;;;8.20;2.17;;;;;;;;;;5076463;28;20075;-63
2021/12/20 10:16:29;;;;;;;12.38;2.25;;;;;;;;;;5075778;28;20523;-63
2021/12/20 10:18:56;;;;;;;8.55;2.58;;;;;;;;;;5078082;28;20132;-63
2021/12/20 10:21:33;;;;;;;6.27;2.70;;;;;;;;;;5077134;28;20131;-63
2021/12/20 10:24:06;;;;;;;6.45;2.30;;;;;;;;;;5079040;28;20141;-63
2021/12/20 10:26:40;;;;;;;5.05;2.00;;;;;;;;;;5082258;28;20051;-63
2021/12/20 10:29:21;;;;;;;14.03;2.30;;;;;;;;;;5087588;28;20773;-63
2021/12/20 10:31:48;;;;;;;13.20;2.47;;;;;;;;;;5082139;28;20045;-63
2021/12/20 10:34:18;;;;;;;10.75;3.42;;;;;;;;;;5081782;28;20476;-63
2021/12/20 10:36:55;;;;;;;6.47;1.90;;;;;;;;;;5079588;28;20206;-63
2021/12/20 10:39:32;;;;;;;6.90;2.10;;;;;;;;;;5086700;28;20159;-63
2021/12/20 10:42:11;;;;;;;7.90;2.13;;;;;;;;;;5077937;28;20080;-63
2021/12/20 10:44:38;;;;;;;11.50;2.45;;;;;;;;;;5079649;28;20128;-63
2021/12/20 10:47:06;;;;;;;6.57;2.10;;;;;;;;;;5080763;28;20083;-64
2021/12/20 10:49:32;;;;;;;13.80;2.35;;;;;;;;;;5078189;28;20044;-63
2021/12/20 10:51:59;;;;;;;7.38;2.08;;;;;;;;;;5081042;28;20066;-63
2021/12/20 10:54:31;;;;;;;11.50;1.80;;;;;;;;;;5083392;28;20134;-63
2021/12/20 10:57:03;;;;;;;9.65;2.03;;;;;;;;;;5082016;28;20041;-63
2021/12/20 10:59:36;;;;;;;14.77;2.60;;;;;;;;;;5073394;28;20479;-63
2021/12/20 11:04:58;;;;;;;16.15;2.42;;;;;;;;;;5079764;28;20451;-63
2021/12/20 11:09:59;;;;;;;11.60;2.35;;;;;;;;;;5081679;28;20086;-63
2021/12/20 11:12:26;;;;;;;10.07;2.72;;;;;;;;;;5081406;28;20139;-63
2021/12/20 11:14:59;;;;;;;8.75;2.45;;;;;;;;;;5079674;28;20526;-63
2021/12/20 11:17:25;;;;;;;11.07;3.00;;;;;;;;;;5075464;28;20075;-63
2021/12/20 11:19:53;;;;;;;8.18;1.98;;;;;;;;;;5084368;28;20064;-63
2021/12/20 11:22:27;;;;;;;13.27;3.03;;;;;;;;;;5082875;28;20083;-63
2021/12/20 11:24:53;;;;;;;;;;;;;;;;;;5065610;28;20095;-63
2021/12/20 11:27:30;;;;;;;10.70;2.85;;;;;;;;;;5079239;28;19971;-64
2021/12/20 11:30:12;;;;;;;10.15;2.17;;;;;;;;;;5081714;28;20056;-63
2021/12/20 11:32:39;;;;;;;9.18;2.33;;;;;;;;;;5082115;28;20048;-63
2021/12/20 11:35:18;;;;;;;12.23;2.33;;;;;;;;;;5080722;28;20048;-63
2021/12/20 11:37:44;;;;;;;9.60;2.33;;;;;;;;;;5083067;28;20139;-63
2021/12/20 11:40:12;;;;;;;10.55;2.70;;;;;;;;;;5080823;28;20209;-63
2021/12/20 11:42:42;;;;;;;17.83;2.60;;;;;;;;;;5073652;28;20139;-63
2021/12/20 11:45:11;;;;;;;15.18;3.20;;;;;;;;;;5078806;28;20052;-63
2021/12/20 11:47:55;;;;;;;10.57;2.50;;;;;;;;;;5074579;28;20123;-63
2021/12/20 11:50:29;;;;;;;12.05;2.92;;;;;;;;;;5079265;28;20543;-64
2021/12/20 11:53:03;;;;;;;8.95;2.60;;;;;;;;;;5079335;28;20093;-63
2021/12/20 11:55:37;;;;;;;12.20;3.03;;;;;;;;;;5080491;28;20131;-63
2021/12/20 11:58:05;;;;;;;7.28;2.78;;;;;;;;;;5079192;28;20132;-63
2021/12/20 12:00:31;;;;;;;13.20;4.13;;;;;;;;;;5082390;28;20465;-63
2021/12/20 12:03:17;;;;;;;15.20;4.00;;;;;;;;;;5079819;28;20048;-64
2021/12/20 12:05:51;;;;;;;10.70;3.25;;;;;;;;;;5080231;28;20511;-64
2021/12/20 12:08:23;;;;;;;11.00;2.92;;;;;;;;;;5075682;28;20068;-63
2021/12/20 12:10:51;;;;;;;10.77;3.22;;;;;;;;;;5078023;28;20491;-64
2021/12/20 12:13:19;;;;;;;10.60;2.60;;;;;;;;;;5078076;28;20048;-63
2021/12/20 12:16:02;;;;;;;11.05;2.58;;;;;;;;;;5082476;28;20563;-63
2021/12/20 12:18:42;;;;;;;10.88;2.83;;;;;;;;;;5077018;28;20048;-63
2021/12/20 12:21:09;;;;;;;6.75;2.22;;;;;;;;;;5079086;28;20050;-64
2021/12/20 12:24:03;;;;;;;9.45;2.65;;;;;;;;;;5086363;28;20044;-63
2021/12/20 12:26:30;;;;;;;12.73;4.30;;;;;;;;;;5081456;28;20495;-63
2021/12/20 12:28:59;;;;;;;21.05;4.55;;;;;;;;;;5080546;28;20461;-63
2021/12/20 12:31:28;;;;;;;13.77;3.60;;;;;;;;;;5077741;28;20051;-63
2021/12/20 12:34:07;;;;;;;8.73;2.90;;;;;;;;;;5079889;28;20076;-63
2021/12/20 12:36:42;;;;;;;13.15;2.97;;;;;;;;;;5075188;28;20072;-63
2021/12/20 12:39:11;;;;;;;11.95;2.58;;;;;;;;;;5081541;28;20555;-63
2021/12/20 12:41:45;;;;;;;11.30;3.45;;;;;;;;;;5068651;28;20568;-64
2021/12/20 12:44:27;;;;;;;7.88;2.65;;;;;;;;;;5060703;28;20496;-63
2021/12/20 12:46:56;;;;;;;12.02;2.38;;;;;;;;;;5058920;28;20551;-63
2021/12/20 12:49:29;;;;;;;6.55;2.08;;;;;;;;;;5078137;28;20133;-64
2021/12/20 12:51:57;;;;;;;13.10;2.80;;;;;;;;;;5081636;28;20132;-63
2021/12/20 12:54:58;;;;;;;6.53;1.73;;;;;;;;;;5079051;28;20695;-63
2021/12/20 12:57:25;;;;;;;13.23;2.30;;;;;;;;;;5083996;28;20492;-63
2021/12/20 12:59:54;;;;;;;10.45;1.90;;;;;;;;;;5079824;28;20572;-63
2021/12/20 13:02:30;;;;;;;5.95;2.22;;;;;;;;;;5078346;28;20045;-63
2021/12/20 13:05:06;;;;;;;10.65;2.67;;;;;;;;;;5061170;28;20056;-63
2021/12/20 13:07:37;;;;;;;14.77;2.72;;;;;;;;;;5059997;28;20159;-63
2021/12/20 13:10:11;;;;;;;8.50;2.22;;;;;;;;;;5061853;28;20055;-63
2021/12/20 13:15:13;;;;;;;14.10;2.10;;;;;;;;;;5048043;28;20053;-63
2021/12/20 13:17:41;;;;;;;8.25;2.58;;;;;;;;;;5052231;28;20497;-63
2021/12/20 13:20:36;;;;;;;6.60;1.98;;;;;;;;;;5051223;28;20052;-63
2021/12/20 13:23:09;;;;;;;10.95;2.42;;;;;;;;;;5055638;28;20049;-63
2021/12/20 13:25:49;;;;;;;12.82;1.80;;;;;;;;;;5055164;28;20492;-63
2021/12/20 13:28:20;;;;;;;9.68;1.90;;;;;;;;;;5060635;28;20159;-63
2021/12/20 13:30:50;;;;;;;10.73;2.20;;;;;;;;;;5055321;28;20147;-63
2021/12/20 13:33:18;;;;;;;10.77;2.78;;;;;;;;;;5061354;28;20083;-63
2021/12/20 13:35:52;;;;;;;10.32;2.10;;;;;;;;;;5077370;28;20064;-63
2021/12/20 13:38:19;;;;;;;;;;;;;;;;;;5079268;28;20059;-63
2021/12/20 13:40:49;;;;;;;8.00;1.90;;;;;;;;;;5074508;28;19928;-63
2021/12/20 13:43:20;;;;;;;6.03;1.70;;;;;;;;;;5059977;28;20133;-63
2021/12/20 13:46:03;;;;;;;5.47;1.80;;;;;;;;;;5057483;28;20091;-63
2021/12/20 13:48:30;;;;;;;10.57;2.28;;;;;;;;;;5053051;28;20084;-63
2021/12/20 13:50:56;;;;;;;6.68;1.50;;;;;;;;;;5054216;28;20091;-63
2021/12/20 13:53:28;;;;;;;9.57;1.70;;;;;;;;;;5060577;28;20166;-63
2021/12/20 13:56:03;;;;;;;7.13;1.88;;;;;;;;;;5071461;28;20131;-63
2021/12/20 13:58:29;;;;;;;;;;;;;;;;;;5080661;28;20122;-63
2021/12/20 14:00:56;;;;;;;4.78;1.80;;;;;;;;;;5084303;28;20374;-63
2021/12/20 14:03:24;;;;;;;3.97;1.60;;;;;;;;;;5082870;28;20502;-63
2021/12/20 14:05:51;;;;;;;9.68;1.65;;;;;;;;;;5078639;28;20463;-63
2021/12/20 14:08:21;;;;;;;9.15;2.17;;;;;;;;;;5083448;28;20123;-63
2021/12/20 14:10:51;;;;;;;6.35;2.00;;;;;;;;;;5082086;28;20048;-63
2021/12/20 14:13:20;;;;;;;6.75;1.80;;;;;;;;;;5084778;28;20099;-63
2021/12/20 14:15:48;;;;;;;10.88;2.10;;;;;;;;;;5079522;28;20128;-63
2021/12/20 14:18:16;;;;;;;9.65;2.53;;;;;;;;;;5080541;28;20084;-63
2021/12/20 14:20:42;;;;;;;;;;;;;;;;;;5086976;28;20430;-63
2021/12/20 14:23:10;;;;;;;11.70;2.25;;;;;;;;;;5084421;28;20015;-63
2021/12/20 14:25:47;;;;;;;10.40;1.70;;;;;;;;;;5081884;28;20124;-63
2021/12/20 14:28:15;;;;;;;13.18;2.38;;;;;;;;;;5082472;28;20178;-63
2021/12/20 14:31:01;;;;;;;6.63;1.70;;;;;;;;;;5075446;28;20070;-63
2021/12/20 14:33:30;;;;;;;5.38;1.80;;;;;;;;;;5071747;28;20048;-63
2021/12/20 14:36:13;;;;;;;4.95;1.83;;;;;;;;;;5082088;28;20087;-63
2021/12/20 14:38:41;;;;;;;9.23;2.53;;;;;;;;;;5079351;28;20098;-63
2021/12/20 14:41:30;;;;;;;7.97;1.63;;;;;;;;;;5076283;28;20572;-63
2021/12/20 14:44:07;;;;;;;8.10;1.67;;;;;;;;;;5048883;28;20504;-63
2021/12/20 14:46:50;;;;;;;9.23;1.70;;;;;;;;;;5065816;28;20048;-63
2021/12/20 14:49:24;;;;;;;9.60;1.73;;;;;;;;;;5058660;28;20132;-63
2021/12/20 14:51:50;;;;;;;5.68;1.65;;;;;;;;;;5065358;28;20136;-63
2021/12/20 14:54:21;;;;;;;9.77;1.83;;;;;;;;;;5062445;28;20049;-63
2021/12/20 14:57:00;;;;;;;7.90;1.75;;;;;;;;;;5061492;28;20484;-63
2021/12/20 14:59:31;;;;;;;10.63;2.17;;;;;;;;;;5054592;28;20044;-63
2021/12/20 15:02:07;;;;;;;7.72;1.90;;;;;;;;;;5052941;28;20130;-63
2021/12/20 15:04:33;;;;;;;9.60;2.05;;;;;;;;;;5056015;28;20492;-63
2021/12/20 15:07:02;;;;;;;12.45;2.10;;;;;;;;;;5067526;28;20144;-62
2021/12/20 15:09:35;;;;;;;8.55;2.22;;;;;;;;;;5061284;28;20103;-63
2021/12/20 15:12:02;;;;;;;11.63;2.10;;;;;;;;;;5064314;28;20125;-63
2021/12/20 15:14:28;;;;;;;5.45;1.67;;;;;;;;;;5056536;28;20052;-63
2021/12/20 15:16:57;;;;;;;5.63;1.60;;;;;;;;;;5054437;28;20504;-63
2021/12/20 15:19:23;;;;;;;15.00;2.35;;;;;;;;;;5060063;28;20049;-63
2021/12/20 15:21:50;;;;;;;5.63;1.70;;;;;;;;;;5052832;28;20075;-63